createdAt,value
2022-11-30T00:01:31.125Z,8.30
2022-11-30T00:03:59.556Z,8.30
2022-11-30T00:06:27.178Z,8.30
2022-11-30T00:08:56.457Z,8.30
2022-11-30T00:11:26.336Z,8.20
2022-11-30T00:13:54.113Z,8.30
2022-11-30T00:16:22.193Z,8.30
2022-11-30T00:18:50.322Z,8.20
2022-11-30T00:21:18.262Z,8.20
2022-11-30T00:23:47.262Z,8.20
2022-11-30T00:26:18.204Z,8.20
2022-11-30T00:28:47.605Z,8.20
2022-11-30T00:31:18.437Z,8.20
2022-11-30T00:33:46.582Z,8.20
2022-11-30T00:36:17.020Z,8.20
2022-11-30T00:38:45.976Z,8.10
2022-11-30T00:41:13.722Z,8.10
2022-11-30T00:43:41.690Z,8.10
2022-11-30T00:46:10.102Z,8.10
2022-11-30T00:48:39.240Z,8.00
2022-11-30T00:51:09.260Z,8.00
2022-11-30T00:53:37.536Z,8.10
2022-11-30T00:56:05.977Z,8.10
2022-11-30T00:58:33.826Z,8.00
2022-11-30T01:01:01.615Z,8.10
2022-11-30T01:03:29.409Z,8.10
2022-11-30T01:06:05.583Z,8.10
2022-11-30T01:08:34.150Z,8.10
2022-11-30T01:11:07.870Z,8.10
2022-11-30T01:13:35.544Z,8.10
2022-11-30T01:16:13.156Z,8.10
2022-11-30T01:18:40.829Z,8.10
2022-11-30T01:21:15.109Z,8.10
2022-11-30T01:23:43.439Z,8.10
2022-11-30T01:26:11.857Z,8.10
2022-11-30T01:28:40.989Z,8.10
2022-11-30T01:31:11.350Z,8.10
2022-11-30T01:33:39.694Z,8.10
2022-11-30T01:36:14.494Z,8.10
2022-11-30T01:38:44.451Z,8.10
2022-11-30T01:41:15.047Z,8.10
2022-11-30T01:43:53.700Z,8.20
2022-11-30T01:46:31.055Z,8.20
2022-11-30T01:49:07.715Z,8.10
2022-11-30T01:51:59.181Z,8.20
2022-11-30T01:54:36.153Z,8.10
2022-11-30T01:57:20.862Z,8.10
2022-11-30T01:59:52.241Z,8.10
2022-11-30T02:02:36.780Z,8.10
2022-11-30T02:05:05.028Z,8.00
2022-11-30T02:07:33.119Z,8.00
2022-11-30T02:10:01.110Z,7.90
2022-11-30T02:12:43.890Z,7.90
2022-11-30T02:15:22.159Z,7.90
2022-11-30T02:18:09.273Z,7.80
2022-11-30T02:21:27.636Z,7.80
2022-11-30T02:24:02.664Z,7.80
2022-11-30T02:26:33.160Z,7.70
2022-11-30T02:29:19.964Z,7.70
2022-11-30T02:32:07.733Z,7.70
2022-11-30T02:34:37.540Z,7.80
2022-11-30T02:37:08.334Z,7.70
2022-11-30T02:39:36.016Z,7.70
2022-11-30T02:42:03.766Z,7.80
2022-11-30T02:44:31.617Z,7.80
2022-11-30T02:47:06.380Z,7.80
2022-11-30T02:49:45.409Z,7.80
2022-11-30T02:52:14.930Z,7.80
2022-11-30T02:54:43.166Z,7.80
2022-11-30T02:57:10.808Z,7.80
2022-11-30T02:59:39.497Z,7.80
2022-11-30T03:02:07.622Z,7.80
2022-11-30T03:04:35.256Z,7.80
2022-11-30T03:07:02.968Z,7.80
2022-11-30T03:09:30.577Z,7.80
2022-11-30T03:11:58.347Z,7.80
2022-11-30T03:14:25.990Z,7.80
2022-11-30T03:16:53.685Z,7.80
2022-11-30T03:19:21.310Z,7.80
2022-11-30T03:21:48.965Z,7.80
2022-11-30T03:24:16.671Z,7.80
2022-11-30T03:26:44.360Z,7.80
2022-11-30T03:29:12.120Z,7.80
2022-11-30T03:31:39.781Z,7.80
2022-11-30T03:34:07.451Z,7.80
2022-11-30T03:36:35.052Z,7.80
2022-11-30T03:39:03.331Z,7.80
2022-11-30T03:41:31.094Z,7.80
2022-11-30T03:43:59.118Z,7.90
2022-11-30T03:46:27.660Z,7.90
2022-11-30T03:48:55.326Z,7.90
2022-11-30T03:51:22.930Z,7.90
2022-11-30T03:53:50.593Z,7.90
2022-11-30T03:56:18.308Z,7.90
2022-11-30T03:58:45.986Z,7.90
2022-11-30T04:01:17.455Z,7.90
2022-11-30T04:03:45.423Z,7.90
2022-11-30T04:06:13.361Z,8.30
2022-11-30T04:08:41.745Z,7.90
2022-11-30T04:11:09.817Z,7.90
2022-11-30T04:13:38.923Z,7.90
2022-11-30T04:16:07.094Z,7.90
2022-11-30T04:18:36.515Z,7.90
2022-11-30T04:21:05.418Z,7.90
2022-11-30T04:23:35.649Z,7.90
2022-11-30T04:26:08.637Z,7.90
2022-11-30T04:28:36.312Z,7.80
2022-11-30T04:31:04.371Z,7.90
2022-11-30T04:33:32.072Z,7.90
2022-11-30T04:36:02.048Z,7.90
2022-11-30T04:38:30.081Z,7.90
2022-11-30T04:40:58.059Z,7.90
2022-11-30T04:43:27.911Z,7.90
2022-11-30T04:45:55.547Z,7.90
2022-11-30T04:48:23.160Z,8.00
2022-11-30T04:50:50.785Z,7.80
2022-11-30T04:53:18.382Z,7.80
2022-11-30T04:55:46.004Z,7.70
2022-11-30T04:58:13.564Z,7.80
2022-11-30T05:00:41.123Z,7.80
2022-11-30T05:03:08.716Z,7.70
2022-11-30T05:05:36.396Z,7.70
2022-11-30T05:08:04.085Z,7.70
2022-11-30T05:10:33.916Z,7.70
2022-11-30T05:13:01.979Z,7.60
2022-11-30T05:15:29.560Z,7.60
2022-11-30T05:18:01.821Z,7.50
2022-11-30T05:20:29.817Z,7.50
2022-11-30T05:22:58.025Z,7.50
2022-11-30T05:25:25.641Z,7.50
2022-11-30T05:27:53.336Z,7.40
2022-11-30T05:30:21.027Z,7.40
2022-11-30T05:32:48.717Z,7.40
2022-11-30T05:35:16.489Z,7.40
2022-11-30T05:37:44.054Z,7.30
2022-11-30T05:40:12.030Z,7.40
2022-11-30T05:42:39.664Z,7.30
2022-11-30T05:45:07.789Z,7.30
2022-11-30T05:47:35.500Z,7.30
2022-11-30T05:50:03.211Z,7.40
2022-11-30T05:52:30.998Z,7.30
2022-11-30T05:54:59.546Z,7.30
2022-11-30T05:57:27.148Z,7.30
2022-11-30T05:59:54.743Z,7.30
2022-11-30T06:02:27.788Z,7.30
2022-11-30T06:04:55.858Z,7.30
2022-11-30T06:07:23.530Z,7.30
2022-11-30T06:09:51.381Z,7.30
2022-11-30T06:12:19.070Z,7.30
2022-11-30T06:14:46.837Z,7.40
2022-11-30T06:17:14.688Z,7.40
2022-11-30T06:19:42.328Z,7.40
2022-11-30T06:22:10.122Z,7.40
2022-11-30T06:24:37.701Z,7.40
2022-11-30T06:27:05.376Z,7.30
2022-11-30T06:29:33.144Z,7.40
2022-11-30T06:32:00.867Z,7.40
2022-11-30T06:34:31.964Z,7.40
2022-11-30T06:36:59.636Z,7.40
2022-11-30T06:39:58.046Z,7.50
2022-11-30T06:42:14.796Z,7.20
2022-11-30T06:44:42.470Z,7.40
2022-11-30T06:47:10.069Z,7.40
2022-11-30T06:49:38.973Z,7.40
2022-11-30T06:52:06.662Z,7.40
2022-11-30T06:54:34.382Z,7.40
2022-11-30T06:57:01.954Z,7.40
2022-11-30T06:59:29.810Z,7.40
2022-11-30T07:01:57.494Z,7.40
2022-11-30T07:04:25.239Z,7.40
2022-11-30T07:06:52.904Z,7.40
2022-11-30T07:09:20.594Z,7.40
2022-11-30T07:11:48.398Z,7.40
2022-11-30T07:14:16.061Z,7.40
2022-11-30T07:16:43.646Z,7.40
2022-11-30T07:19:11.373Z,7.40
2022-11-30T07:21:42.978Z,7.40
2022-11-30T07:24:32.769Z,7.30
2022-11-30T07:27:02.379Z,7.30
2022-11-30T07:29:30.137Z,7.30
2022-11-30T07:31:58.199Z,7.30
2022-11-30T07:34:26.536Z,7.30
2022-11-30T07:36:54.285Z,7.30
2022-11-30T07:39:21.847Z,7.30
2022-11-30T07:41:49.603Z,7.40
2022-11-30T07:44:19.053Z,7.30
2022-11-30T07:46:46.591Z,7.30
2022-11-30T07:49:14.202Z,7.40
2022-11-30T07:51:41.791Z,7.30
2022-11-30T07:54:09.532Z,7.70
2022-11-30T07:56:37.174Z,7.30
2022-11-30T07:59:04.783Z,7.30
2022-11-30T08:01:33.652Z,7.20
2022-11-30T08:04:01.648Z,7.20
2022-11-30T08:06:31.133Z,7.30
2022-11-30T08:09:01.286Z,7.30
2022-11-30T08:11:31.126Z,7.30
2022-11-30T08:13:58.856Z,7.30
2022-11-30T08:16:28.830Z,7.30
2022-11-30T08:18:57.546Z,7.30
2022-11-30T08:21:25.482Z,7.30
2022-11-30T08:23:59.084Z,7.30
2022-11-30T08:26:30.414Z,7.40
2022-11-30T08:29:00.093Z,7.40
2022-11-30T08:31:33.607Z,7.40
2022-11-30T08:34:07.495Z,7.40
2022-11-30T08:36:35.172Z,7.40
2022-11-30T08:39:05.246Z,7.30
2022-11-30T08:41:34.919Z,7.30
2022-11-30T08:44:02.954Z,7.30
2022-11-30T08:49:22.012Z,7.20
2022-11-30T08:54:45.350Z,7.10
2022-11-30T08:57:14.791Z,7.10
2022-11-30T08:59:42.409Z,7.10
2022-11-30T09:02:17.000Z,7.20
2022-11-30T09:04:45.535Z,7.20
2022-11-30T09:07:13.490Z,7.30
2022-11-30T09:09:41.141Z,7.40
2022-11-30T09:12:09.343Z,7.40
2022-11-30T09:14:37.211Z,7.40
2022-11-30T09:17:05.055Z,7.50
2022-11-30T09:19:32.799Z,7.50
2022-11-30T09:22:00.664Z,7.50
2022-11-30T09:24:28.366Z,7.50
2022-11-30T09:26:57.585Z,7.50
2022-11-30T09:29:25.162Z,7.40
2022-11-30T09:31:52.829Z,7.40
2022-11-30T09:34:20.735Z,7.40
2022-11-30T09:36:48.388Z,7.40
2022-11-30T09:39:16.413Z,7.50
2022-11-30T09:42:02.175Z,7.50
2022-11-30T09:45:03.010Z,7.50
2022-11-30T09:47:50.080Z,7.50
2022-11-30T09:50:21.252Z,7.50
2022-11-30T09:53:15.514Z,7.50
2022-11-30T09:55:44.524Z,7.60
2022-11-30T09:58:43.723Z,7.60
2022-11-30T10:01:20.284Z,7.60
2022-11-30T10:03:48.677Z,7.70
2022-11-30T10:06:25.570Z,7.70
2022-11-30T10:09:25.910Z,7.70
2022-11-30T10:11:56.595Z,7.80
2022-11-30T10:14:49.198Z,7.80
2022-11-30T10:17:26.329Z,7.90
2022-11-30T10:20:30.426Z,7.90
2022-11-30T10:23:15.318Z,8.00
2022-11-30T10:25:49.135Z,8.80
2022-11-30T10:28:46.481Z,8.00
2022-11-30T10:31:13.918Z,8.00
2022-11-30T10:33:51.457Z,8.10
2022-11-30T10:36:37.207Z,8.10
2022-11-30T10:39:22.410Z,8.10
2022-11-30T10:41:58.901Z,8.20
2022-11-30T10:44:49.313Z,8.30
2022-11-30T10:47:22.975Z,8.30
2022-11-30T10:49:52.803Z,8.30
2022-11-30T10:52:31.774Z,8.40
2022-11-30T10:55:04.838Z,8.50
2022-11-30T10:57:33.648Z,8.60
2022-11-30T11:00:05.319Z,8.60
2022-11-30T11:02:41.220Z,8.70
2022-11-30T11:05:23.040Z,8.70
2022-11-30T11:08:06.278Z,8.70
2022-11-30T11:10:43.269Z,8.70
2022-11-30T11:13:37.704Z,8.70
2022-11-30T11:16:07.791Z,8.70
2022-11-30T11:18:37.199Z,8.70
2022-11-30T11:21:18.519Z,8.80
2022-11-30T11:23:47.778Z,8.80
2022-11-30T11:26:25.347Z,8.70
2022-11-30T11:28:55.660Z,8.80
2022-11-30T11:31:46.228Z,8.90
2022-11-30T11:34:26.550Z,8.90
2022-11-30T11:37:21.651Z,8.90
2022-11-30T11:40:15.947Z,9.00
2022-11-30T11:42:48.683Z,9.10
2022-11-30T11:45:23.704Z,9.10
2022-11-30T11:48:06.157Z,9.10
2022-11-30T11:51:05.467Z,9.20
2022-11-30T11:53:55.420Z,9.30
2022-11-30T11:56:34.320Z,9.60
2022-11-30T11:59:18.080Z,9.50
2022-11-30T12:01:48.463Z,9.50
2022-11-30T12:04:36.183Z,9.50
2022-11-30T12:07:17.945Z,9.40
2022-11-30T12:10:12.640Z,9.40
2022-11-30T12:12:54.611Z,9.40
2022-11-30T12:15:43.676Z,9.40
2022-11-30T12:18:38.631Z,9.40
2022-11-30T12:21:22.382Z,9.40
2022-11-30T12:24:05.103Z,9.40
2022-11-30T12:26:35.640Z,9.50
2022-11-30T12:29:23.663Z,9.50
2022-11-30T12:32:02.987Z,9.50
2022-11-30T12:34:49.348Z,9.50
2022-11-30T12:37:57.302Z,9.60
2022-11-30T12:40:50.759Z,9.60
2022-11-30T12:43:52.441Z,9.70
2022-11-30T12:46:28.595Z,9.70
2022-11-30T12:49:24.000Z,9.80
2022-11-30T12:52:02.334Z,9.80
2022-11-30T12:54:49.384Z,9.90
2022-11-30T12:57:27.690Z,9.90
2022-11-30T13:00:14.309Z,9.90
2022-11-30T13:02:57.264Z,9.90
2022-11-30T13:05:40.037Z,9.90
2022-11-30T13:08:27.467Z,9.90
2022-11-30T13:11:01.175Z,9.90
2022-11-30T13:13:31.657Z,9.90
2022-11-30T13:16:00.947Z,9.90
2022-11-30T13:18:30.369Z,9.90
2022-11-30T13:21:21.773Z,9.90
2022-11-30T13:24:14.802Z,9.80
2022-11-30T13:27:06.452Z,9.80
2022-11-30T13:29:46.191Z,9.80
2022-11-30T13:35:23.233Z,9.80
2022-11-30T13:38:34.519Z,9.80
2022-11-30T13:41:03.118Z,9.70
2022-11-30T13:43:36.425Z,9.80
2022-11-30T13:46:22.481Z,9.80
2022-11-30T13:49:08.649Z,9.80
2022-11-30T13:51:39.670Z,9.80
2022-11-30T13:54:42.961Z,9.80
2022-11-30T13:57:25.640Z,9.80
2022-11-30T14:00:01.020Z,9.80
2022-11-30T14:02:36.608Z,9.80
2022-11-30T14:05:16.716Z,9.80
2022-11-30T14:08:07.454Z,9.80
2022-11-30T14:10:38.145Z,9.80
2022-11-30T14:13:11.922Z,9.80
2022-11-30T14:15:39.467Z,9.80
2022-11-30T14:18:10.241Z,9.70
2022-11-30T14:20:55.296Z,9.60
2022-11-30T14:23:27.996Z,9.60
2022-11-30T14:25:57.705Z,9.50
2022-11-30T14:28:44.560Z,9.40
2022-11-30T14:31:25.988Z,9.40
2022-11-30T14:34:27.315Z,9.30
2022-11-30T14:37:15.011Z,9.30
2022-11-30T14:39:45.634Z,9.30
2022-11-30T14:42:34.946Z,9.30
2022-11-30T14:45:03.180Z,9.20
2022-11-30T14:47:33.363Z,9.30
2022-11-30T14:50:04.478Z,9.20
2022-11-30T14:52:52.929Z,9.10
2022-11-30T14:55:45.551Z,9.10
2022-11-30T14:58:20.362Z,9.00
2022-11-30T15:00:48.810Z,8.90
2022-11-30T15:03:21.742Z,8.80
2022-11-30T15:06:01.724Z,8.70
2022-11-30T15:08:41.517Z,8.70
2022-11-30T15:11:29.492Z,8.60
2022-11-30T15:14:07.230Z,8.50
2022-11-30T15:16:34.982Z,8.40
2022-11-30T15:19:27.721Z,8.30
2022-11-30T15:21:57.211Z,8.20
2022-11-30T15:24:26.564Z,8.10
2022-11-30T15:26:56.270Z,8.10
2022-11-30T15:29:47.270Z,8.00
2022-11-30T15:32:23.216Z,8.00
2022-11-30T15:35:08.572Z,7.90
2022-11-30T15:37:41.240Z,7.80
2022-11-30T15:40:11.018Z,7.80
2022-11-30T15:42:40.639Z,7.70
2022-11-30T15:45:22.664Z,7.70
2022-11-30T15:47:51.153Z,7.60
2022-11-30T15:50:35.198Z,7.50
2022-11-30T15:53:27.135Z,7.50
2022-11-30T15:56:22.774Z,7.40
2022-11-30T15:59:06.410Z,7.30
2022-11-30T16:02:06.166Z,7.30
2022-11-30T16:05:13.860Z,7.20
2022-11-30T16:08:01.487Z,7.20
2022-11-30T16:10:38.099Z,7.10
2022-11-30T16:13:06.575Z,7.00
2022-11-30T16:15:47.380Z,7.00
2022-11-30T16:18:29.307Z,6.90
2022-11-30T16:21:00.380Z,6.80
2022-11-30T16:23:28.494Z,6.80
2022-11-30T16:25:56.512Z,6.70
2022-11-30T16:28:24.238Z,6.70
2022-11-30T16:30:59.150Z,6.60
2022-11-30T16:33:27.855Z,6.60
2022-11-30T16:35:59.594Z,6.50
2022-11-30T16:38:27.989Z,6.40
2022-11-30T16:40:56.358Z,6.40
2022-11-30T16:43:26.419Z,6.40
2022-11-30T16:45:54.210Z,6.30
2022-11-30T16:48:24.288Z,6.20
2022-11-30T16:50:51.990Z,6.20
2022-11-30T16:53:19.651Z,6.20
2022-11-30T16:55:49.741Z,6.10
2022-11-30T16:58:17.444Z,6.10
2022-11-30T17:00:45.120Z,6.10
2022-11-30T17:03:23.811Z,6.10
2022-11-30T17:05:51.654Z,6.10
2022-11-30T17:08:22.078Z,6.10
2022-11-30T17:10:53.403Z,6.10
2022-11-30T17:13:21.395Z,6.20
2022-11-30T17:15:49.474Z,6.20
2022-11-30T17:18:17.602Z,6.20
2022-11-30T17:20:45.375Z,6.20
2022-11-30T17:23:13.003Z,6.20
2022-11-30T17:25:40.673Z,6.20
2022-11-30T17:28:08.299Z,6.10
2022-11-30T17:30:36.674Z,6.30
2022-11-30T17:33:04.421Z,6.50
2022-11-30T17:35:32.295Z,6.30
2022-11-30T17:38:00.485Z,6.40
2022-11-30T17:40:29.352Z,6.40
2022-11-30T17:42:59.576Z,6.40
2022-11-30T17:45:27.422Z,6.50
2022-11-30T17:47:55.122Z,6.50
2022-11-30T17:50:22.841Z,6.50
2022-11-30T17:52:50.480Z,6.60
2022-11-30T17:55:21.203Z,6.60
2022-11-30T17:57:49.016Z,6.60
2022-11-30T18:00:17.388Z,6.60
2022-11-30T18:02:45.260Z,6.60
2022-11-30T18:05:13.031Z,6.60
2022-11-30T18:07:41.999Z,6.60
2022-11-30T18:10:10.754Z,6.70
2022-11-30T18:12:38.498Z,6.70
2022-11-30T18:15:07.001Z,6.60
2022-11-30T18:17:35.241Z,6.70
2022-11-30T18:20:03.209Z,6.60
2022-11-30T18:22:31.342Z,6.60
2022-11-30T18:24:59.127Z,6.60
2022-11-30T18:27:26.885Z,6.60
2022-11-30T18:29:54.661Z,6.70
2022-11-30T18:32:23.008Z,5.90
2022-11-30T18:34:50.823Z,6.60
2022-11-30T18:37:18.644Z,6.60
2022-11-30T18:39:46.354Z,6.60
2022-11-30T18:42:14.207Z,6.60
2022-11-30T18:44:41.924Z,6.70
2022-11-30T18:47:09.555Z,6.70
2022-11-30T18:49:37.202Z,6.70
2022-11-30T18:52:04.917Z,6.70
2022-11-30T18:54:32.564Z,6.60
2022-11-30T18:57:00.244Z,6.70
2022-11-30T18:59:27.875Z,6.60
2022-11-30T19:01:55.606Z,6.70
2022-11-30T19:04:25.728Z,6.70
2022-11-30T19:06:53.700Z,6.70
2022-11-30T19:09:22.604Z,6.80
2022-11-30T19:11:50.935Z,6.70
2022-11-30T19:14:18.746Z,6.80
2022-11-30T19:16:47.273Z,6.80
2022-11-30T19:19:15.144Z,6.90
2022-11-30T19:21:44.950Z,6.90
2022-11-30T19:24:12.706Z,6.90
2022-11-30T19:26:40.443Z,6.80
2022-11-30T19:29:10.493Z,6.90
2022-11-30T19:31:38.189Z,6.90
2022-11-30T19:34:12.050Z,6.90
2022-11-30T19:36:40.747Z,6.80
2022-11-30T19:39:10.023Z,6.80
2022-11-30T19:41:37.629Z,6.70
2022-11-30T19:44:05.362Z,6.60
2022-11-30T19:46:34.545Z,6.50
2022-11-30T19:49:02.517Z,6.50
2022-11-30T19:51:31.060Z,6.30
2022-11-30T19:54:01.507Z,6.20
2022-11-30T19:56:31.285Z,6.10
2022-11-30T19:59:04.577Z,6.00
2022-11-30T20:01:33.987Z,5.90
2022-11-30T20:04:02.076Z,5.90
2022-11-30T20:06:36.105Z,6.10
2022-11-30T20:09:05.334Z,5.70
2022-11-30T20:11:33.412Z,5.60
2022-11-30T20:14:01.086Z,5.50
2022-11-30T20:16:29.339Z,5.50
2022-11-30T20:19:00.835Z,5.40
2022-11-30T20:21:34.362Z,5.40
2022-11-30T20:24:06.903Z,5.40
2022-11-30T20:26:37.131Z,5.50
2022-11-30T20:29:06.895Z,5.60
2022-11-30T20:31:36.095Z,5.70
2022-11-30T20:34:05.414Z,5.70
2022-11-30T20:36:33.016Z,5.80
2022-11-30T20:39:01.284Z,5.90
2022-11-30T20:41:29.197Z,6.00
2022-11-30T20:43:57.524Z,6.00
2022-11-30T20:46:29.468Z,6.10
2022-11-30T20:48:58.372Z,6.10
2022-11-30T20:51:32.540Z,6.10
2022-11-30T20:54:07.047Z,6.10
2022-11-30T20:56:37.230Z,6.20
2022-11-30T20:59:08.511Z,6.20
2022-11-30T21:01:36.519Z,6.30
2022-11-30T21:04:04.582Z,6.30
2022-11-30T21:06:32.998Z,6.30
2022-11-30T21:09:00.874Z,6.30
2022-11-30T21:11:30.810Z,6.30
2022-11-30T21:13:58.772Z,6.30
2022-11-30T21:16:29.675Z,6.20
2022-11-30T21:18:59.647Z,6.20
2022-11-30T21:21:35.398Z,6.20
2022-11-30T21:24:06.401Z,6.20
2022-11-30T21:26:39.758Z,6.20
2022-11-30T21:29:11.507Z,6.20
2022-11-30T21:31:39.448Z,6.30
2022-11-30T21:34:07.257Z,6.30
2022-11-30T21:36:35.233Z,6.30
2022-11-30T21:39:07.081Z,6.30
2022-11-30T21:41:37.024Z,6.40
2022-11-30T21:44:06.026Z,6.50
2022-11-30T21:46:34.260Z,6.50
2022-11-30T21:49:02.457Z,6.60
2022-11-30T21:51:32.010Z,6.60
2022-11-30T21:54:05.265Z,6.70
2022-11-30T21:56:35.505Z,6.70
2022-11-30T21:59:05.895Z,6.70
2022-11-30T22:01:37.248Z,6.80
2022-11-30T22:04:06.781Z,6.80
2022-11-30T22:06:36.580Z,6.80
2022-11-30T22:09:09.804Z,6.80
2022-11-30T22:11:42.501Z,6.80
2022-11-30T22:14:18.360Z,6.90
2022-11-30T22:16:46.055Z,6.80
2022-11-30T22:19:13.646Z,7.00
2022-11-30T22:21:45.304Z,7.00
2022-11-30T22:24:16.025Z,7.00
2022-11-30T22:26:45.126Z,7.00
2022-11-30T22:29:16.134Z,7.10
2022-11-30T22:31:46.104Z,7.10
2022-11-30T22:34:13.875Z,7.10
2022-11-30T22:36:43.591Z,7.20
2022-11-30T22:39:17.632Z,7.20
2022-11-30T22:41:48.608Z,7.20
2022-11-30T22:44:21.171Z,7.20
2022-11-30T22:46:48.959Z,7.20
2022-11-30T22:49:21.158Z,7.20
2022-11-30T22:51:50.071Z,7.20
2022-11-30T22:54:18.146Z,7.20
2022-11-30T22:56:46.890Z,7.20
2022-11-30T22:59:15.167Z,7.20
2022-11-30T23:01:45.905Z,7.20
2022-11-30T23:04:14.667Z,7.20
2022-11-30T23:06:43.692Z,7.20
2022-11-30T23:09:20.361Z,7.10
2022-11-30T23:11:48.852Z,7.20
2022-11-30T23:14:17.154Z,7.20
2022-11-30T23:16:45.520Z,7.10
2022-11-30T23:19:13.489Z,7.20
2022-11-30T23:21:44.973Z,7.20
2022-11-30T23:24:20.264Z,7.20
2022-11-30T23:26:48.745Z,7.20
2022-11-30T23:29:17.722Z,7.20
2022-11-30T23:31:46.472Z,7.30
2022-11-30T23:34:17.740Z,7.30
2022-11-30T23:36:45.723Z,7.30
2022-11-30T23:39:15.750Z,7.30
2022-11-30T23:41:43.641Z,7.30
2022-11-30T23:44:11.726Z,7.30
2022-11-30T23:46:39.840Z,7.30
2022-11-30T23:49:08.374Z,7.30
2022-11-30T23:51:36.048Z,7.40
2022-11-30T23:54:03.955Z,7.40
2022-11-30T23:56:31.557Z,7.40
2022-11-30T23:58:59.282Z,7.40
